Time,TemperatureF,DewpointF,PressureIn,WindDirection,WindDirectionDegrees,WindSpeedMPH,WindSpeedGustMPH,Humidity,HourlyPrecipIn,Conditions,Clouds,dailyrainin,SoftwareType,DateUTC
2013-11-29 00:16:00,28.4,21.8,30.50,WNW,291,8.0,8.0,76,0.00,,---,0.00,VWS V14.01,2013-11-29 05:16:00,
2013-11-29 00:31:00,28.4,21.5,30.50,NNW,332,5.0,10.0,75,0.00,,---,0.00,VWS V14.01,2013-11-29 05:31:00,
2013-11-29 00:46:00,28.2,20.7,30.51,NNW,339,1.0,10.0,73,0.00,,---,0.00,VWS V14.01,2013-11-29 05:46:00,
2013-11-29 01:01:00,27.9,20.7,30.51,WNW,294,4.0,7.0,74,0.00,,---,0.00,VWS V14.01,2013-11-29 06:01:00,
2013-11-29 01:16:00,27.7,19.9,30.51,WNW,294,6.0,10.0,72,0.00,,---,0.00,VWS V14.01,2013-11-29 06:16:00,
2013-11-29 01:31:00,27.5,19.4,30.52,WNW,291,5.0,8.0,71,0.00,,---,0.00,VWS V14.01,2013-11-29 06:31:00,
2013-11-29 01:46:00,27.4,19.2,30.52,WNW,292,3.0,6.0,71,0.00,,---,0.00,VWS V14.01,2013-11-29 06:46:00,
2013-11-29 02:01:00,27.2,19.1,30.52,WNW,292,1.0,5.0,71,0.00,,---,0.00,VWS V14.01,2013-11-29 07:01:00,
2013-11-29 02:16:00,27.1,19.3,30.53,WNW,292,0.0,4.0,72,0.00,,---,0.00,VWS V14.01,2013-11-29 07:16:00,
2013-11-29 02:31:00,26.9,19.4,30.53,WNW,292,0.0,0.0,73,0.00,,---,0.00,VWS V14.01,2013-11-29 07:31:00,
2013-11-29 02:46:00,26.7,19.2,30.54,WNW,292,0.0,2.0,73,0.00,,---,0.00,VWS V14.01,2013-11-29 07:46:00,
2013-11-29 03:01:00,26.7,19.9,30.55,WNW,292,0.0,2.0,75,0.00,,---,0.00,VWS V14.01,2013-11-29 08:01:00,
2013-11-29 03:16:00,26.6,19.4,30.55,WNW,292,0.0,2.0,74,0.00,,---,0.00,VWS V14.01,2013-11-29 08:16:00,
2013-11-29 03:31:00,26.5,19.7,30.56,WNW,292,0.0,1.0,75,0.00,,---,0.00,VWS V14.01,2013-11-29 08:31:00,
2013-11-29 03:46:00,26.5,20.0,30.56,WNW,292,0.0,0.0,76,0.00,,---,0.00,VWS V14.01,2013-11-29 08:46:00,
2013-11-29 04:01:00,26.6,20.1,30.56,WNW,292,0.0,3.0,76,0.00,,---,0.00,VWS V14.01,2013-11-29 09:01:00,
2013-11-29 04:16:00,26.6,20.1,30.56,WNW,292,0.0,0.0,76,0.00,,---,0.00,VWS V14.01,2013-11-29 09:16:00,
2013-11-29 04:31:00,26.8,20.3,30.57,WNW,292,0.0,1.0,76,0.00,,---,0.00,VWS V14.01,2013-11-29 09:31:00,
2013-11-29 04:46:00,26.9,20.0,30.57,WNW,292,0.0,0.0,75,0.00,,---,0.00,VWS V14.01,2013-11-29 09:46:00,
2013-11-29 05:01:00,26.7,20.5,30.57,WNW,292,3.0,4.0,77,0.00,,---,0.00,VWS V14.01,2013-11-29 10:01:00,
2013-11-29 05:16:00,26.3,20.4,30.58,WNW,292,0.0,3.0,78,0.00,,---,0.00,VWS V14.01,2013-11-29 10:16:00,
2013-11-29 05:31:00,26.1,20.5,30.58,WNW,292,0.0,1.0,79,0.00,,---,0.00,VWS V14.01,2013-11-29 10:31:00,
2013-11-29 05:46:00,25.8,20.5,30.59,WNW,292,0.0,1.0,80,0.00,,---,0.00,VWS V14.01,2013-11-29 10:46:00,
2013-11-29 06:01:00,25.7,20.7,30.59,WNW,292,0.0,1.0,81,0.00,,---,0.00,VWS V14.01,2013-11-29 11:01:00,
2013-11-29 06:16:00,25.8,20.8,30.60,WNW,292,0.0,2.0,81,0.00,,---,0.00,VWS V14.01,2013-11-29 11:16:00,
2013-11-29 06:31:00,26.1,20.5,30.61,WNW,292,0.0,3.0,79,0.00,,---,0.00,VWS V14.01,2013-11-29 11:31:00,
2013-11-29 06:46:00,26.2,20.6,30.62,WNW,292,2.0,3.0,79,0.00,,---,0.00,VWS V14.01,2013-11-29 11:46:00,
2013-11-29 07:01:00,26.2,20.6,30.63,WNW,292,0.0,2.0,79,0.00,,---,0.00,VWS V14.01,2013-11-29 12:01:00,
2013-11-29 07:16:00,26.2,20.6,30.63,WNW,292,2.0,3.0,79,0.00,,---,0.00,VWS V14.01,2013-11-29 12:16:00,
2013-11-29 07:31:00,26.1,20.5,30.64,WNW,292,0.0,2.0,79,0.00,,---,0.00,VWS V14.01,2013-11-29 12:31:00,
2013-11-29 07:46:00,26.0,20.4,30.64,WNW,292,0.0,3.0,79,0.00,,---,0.00,VWS V14.01,2013-11-29 12:46:00,
2013-11-29 08:01:00,26.0,20.7,30.64,WNW,292,0.0,1.0,80,0.00,,---,0.00,VWS V14.01,2013-11-29 13:01:00,
2013-11-29 08:16:00,25.9,20.6,30.65,WNW,292,1.0,4.0,80,0.00,,---,0.00,VWS V14.01,2013-11-29 13:16:00,
2013-11-29 08:31:00,25.9,20.6,30.65,WNW,292,2.0,4.0,80,0.00,,---,0.00,VWS V14.01,2013-11-29 13:31:00,
2013-11-29 08:46:00,26.0,20.4,30.66,WNW,285,0.0,5.0,79,0.00,,---,0.00,VWS V14.01,2013-11-29 13:46:00,
2013-11-29 09:01:00,26.1,20.5,30.66,WNW,285,0.0,3.0,79,0.00,,---,0.00,VWS V14.01,2013-11-29 14:01:00,
2013-11-29 09:31:00,27.0,21.1,30.66,WNW,285,0.0,3.0,78,0.00,,---,0.00,VWS V14.01,2013-11-29 14:31:00,
2013-11-29 09:46:00,27.7,21.1,30.67,WNW,285,0.0,3.0,76,0.00,,---,0.00,VWS V14.01,2013-11-29 14:46:00,
2013-11-29 10:01:00,28.3,21.4,30.67,WNW,285,0.0,4.0,75,0.00,,---,0.00,VWS V14.01,2013-11-29 15:01:00,
2013-11-29 10:16:00,28.9,21.4,30.68,WNW,285,1.0,5.0,73,0.00,,---,0.00,VWS V14.01,2013-11-29 15:16:00,
2013-11-29 10:31:00,29.5,21.3,30.67,West,279,2.0,5.0,71,0.00,,---,0.00,VWS V14.01,2013-11-29 15:31:00,
2013-11-29 10:46:00,29.6,21.4,30.68,West,279,2.0,4.0,71,0.01,,---,0.01,VWS V14.01,2013-11-29 15:46:00,
2013-11-29 11:01:00,30.3,21.4,30.68,West,279,2.0,5.0,69,0.02,,---,0.02,VWS V14.01,2013-11-29 16:01:00,
2013-11-29 11:16:00,30.2,20.9,30.68,West,279,3.0,5.0,68,0.02,,---,0.02,VWS V14.01,2013-11-29 16:16:00,
2013-11-29 11:31:00,29.9,21.3,30.67,West,279,1.0,4.0,70,0.02,,---,0.02,VWS V14.01,2013-11-29 16:31:00,
2013-11-29 11:46:00,31.9,22.2,30.67,West,279,1.0,3.0,67,0.03,,---,0.03,VWS V14.01,2013-11-29 16:46:00,
2013-11-29 12:01:00,32.8,22.0,30.66,West,279,0.0,4.0,64,0.02,,---,0.03,VWS V14.01,2013-11-29 17:01:00,
2013-11-29 12:16:00,32.7,21.9,30.66,West,279,0.0,3.0,64,0.02,,---,0.04,VWS V14.01,2013-11-29 17:16:00,
2013-11-29 12:31:00,32.9,20.9,30.65,East,92,1.0,6.0,61,0.03,,---,0.05,VWS V14.01,2013-11-29 17:31:00,
2013-11-29 12:46:00,32.9,20.9,30.65,SSE,165,2.0,7.0,61,0.03,,---,0.05,VWS V14.01,2013-11-29 17:46:00,
2013-11-29 13:01:00,32.9,20.9,30.64,ESE,103,0.0,7.0,61,0.03,,---,0.06,VWS V14.01,2013-11-29 18:01:00,
2013-11-29 13:16:00,32.7,21.1,30.64,ESE,102,0.0,6.0,62,0.03,,---,0.06,VWS V14.01,2013-11-29 18:16:00,
2013-11-29 13:31:00,33.2,21.6,30.63,ESE,117,2.0,8.0,62,0.03,,---,0.07,VWS V14.01,2013-11-29 18:31:00,
2013-11-29 13:46:00,33.2,21.2,30.64,ESE,115,3.0,7.0,61,0.02,,---,0.07,VWS V14.01,2013-11-29 18:46:00,
2013-11-29 14:01:00,33.8,22.2,30.63,South,183,2.0,6.0,62,0.03,,---,0.08,VWS V14.01,2013-11-29 19:01:00,
2013-11-29 14:16:00,33.6,21.6,30.62,East,95,7.0,7.0,61,0.02,,---,0.08,VWS V14.01,2013-11-29 19:16:00,
2013-11-29 14:31:00,33.0,21.8,30.62,ESE,118,0.0,8.0,63,0.03,,---,0.09,VWS V14.01,2013-11-29 19:31:00,
2013-11-29 14:46:00,33.6,21.6,30.62,SE,142,3.0,8.0,61,0.02,,---,0.09,VWS V14.01,2013-11-29 19:46:00,
2013-11-29 15:01:00,33.0,21.4,30.61,ESE,107,2.0,10.0,62,0.03,,---,0.10,VWS V14.01,2013-11-29 20:01:00,
2013-11-29 15:16:00,32.7,20.8,30.61,ESE,113,4.0,9.0,61,0.02,,---,0.10,VWS V14.01,2013-11-29 20:16:00,
2013-11-29 15:31:00,32.5,20.2,30.61,East,93,6.0,7.0,60,0.03,,---,0.11,VWS V14.01,2013-11-29 20:31:00,
2013-11-29 15:46:00,32.5,21.3,30.61,ESE,113,1.0,8.0,63,0.02,,---,0.11,VWS V14.01,2013-11-29 20:46:00,
2013-11-29 16:01:00,32.1,20.6,30.61,SE,134,3.0,8.0,62,0.02,,---,0.11,VWS V14.01,2013-11-29 21:01:00,
2013-11-29 16:16:00,32.4,20.9,30.61,SSE,162,2.0,7.0,62,0.01,,---,0.11,VWS V14.01,2013-11-29 21:16:00,
2013-11-29 16:31:00,32.0,20.9,30.62,SE,145,2.0,5.0,63,0.02,,---,0.12,VWS V14.01,2013-11-29 21:31:00,
2013-11-29 16:46:00,31.4,21.0,30.61,SE,145,2.0,4.0,65,0.01,,---,0.12,VWS V14.01,2013-11-29 21:46:00,
2013-11-29 17:01:00,31.0,21.0,30.61,SE,145,0.0,2.0,66,0.01,,---,0.12,VWS V14.01,2013-11-29 22:01:00,
2013-11-29 17:16:00,30.5,20.9,30.61,SE,145,1.0,2.0,67,0.01,,---,0.12,VWS V14.01,2013-11-29 22:16:00,
2013-11-29 17:31:00,30.0,20.7,30.60,SE,145,1.0,2.0,68,0.01,,---,0.12,VWS V14.01,2013-11-29 22:31:00,
2013-11-29 17:46:00,29.3,20.7,30.60,SE,145,0.0,2.0,70,0.00,,---,0.12,VWS V14.01,2013-11-29 22:46:00,
2013-11-29 18:01:00,28.9,20.7,30.60,SE,145,0.0,2.0,71,0.00,,---,0.12,VWS V14.01,2013-11-29 23:01:00,
2013-11-29 18:16:00,28.6,21.1,30.60,SE,145,1.0,2.0,73,0.00,,---,0.12,VWS V14.01,2013-11-29 23:16:00,
2013-11-29 18:31:00,28.3,20.8,30.60,SE,145,0.0,3.0,73,0.00,,---,0.12,VWS V14.01,2013-11-29 23:31:00,
2013-11-29 18:46:00,27.7,20.5,30.59,SE,145,1.0,3.0,74,0.00,,---,0.12,VWS V14.01,2013-11-29 23:46:00,
2013-11-29 19:01:00,27.5,20.9,30.59,SE,145,0.0,3.0,76,0.00,,---,0.12,VWS V14.01,2013-11-30 00:01:00,
2013-11-29 19:16:00,26.8,20.0,30.59,SE,145,0.0,2.0,75,0.00,,---,0.12,VWS V14.01,2013-11-30 00:16:00,
2013-11-29 19:31:00,26.4,20.5,30.58,SE,145,0.0,2.0,78,0.00,,---,0.12,VWS V14.01,2013-11-30 00:31:00,
2013-11-29 19:46:00,27.1,21.2,30.57,SE,145,1.0,4.0,78,0.00,,---,0.12,VWS V14.01,2013-11-30 00:46:00,
2013-11-29 20:01:00,27.8,21.2,30.57,SE,138,0.0,5.0,76,0.00,,---,0.12,VWS V14.01,2013-11-30 01:01:00,
2013-11-29 20:16:00,28.0,21.4,30.57,SE,139,3.0,4.0,76,0.00,,---,0.12,VWS V14.01,2013-11-30 01:16:00,
2013-11-29 20:31:00,28.1,21.2,30.57,SE,138,2.0,5.0,75,0.00,,---,0.12,VWS V14.01,2013-11-30 01:31:00,
2013-11-29 20:46:00,28.3,21.4,30.56,SE,127,1.0,6.0,75,0.00,,---,0.12,VWS V14.01,2013-11-30 01:46:00,
2013-11-29 21:01:00,28.4,21.5,30.55,ESE,122,2.0,7.0,75,0.00,,---,0.12,VWS V14.01,2013-11-30 02:01:00,
2013-11-29 21:16:00,28.3,21.4,30.55,SE,139,3.0,6.0,75,0.00,,---,0.12,VWS V14.01,2013-11-30 02:16:00,
2013-11-29 21:31:00,28.5,21.6,30.55,SE,135,3.0,7.0,75,0.00,,---,0.12,VWS V14.01,2013-11-30 02:31:00,
2013-11-29 21:46:00,28.7,21.8,30.55,SE,126,2.0,7.0,75,0.00,,---,0.12,VWS V14.01,2013-11-30 02:46:00,
2013-11-29 22:01:00,28.8,22.2,30.55,SE,138,2.0,8.0,76,0.00,,---,0.12,VWS V14.01,2013-11-30 03:01:00,
2013-11-29 22:16:00,29.0,22.4,30.55,SE,136,5.0,9.0,76,0.00,,---,0.12,VWS V14.01,2013-11-30 03:16:00,
2013-11-29 22:31:00,29.2,22.6,30.54,SE,138,4.0,10.0,76,0.00,,---,0.12,VWS V14.01,2013-11-30 03:31:00,
2013-11-29 22:46:00,29.3,22.4,30.53,SE,133,4.0,9.0,75,0.00,,---,0.12,VWS V14.01,2013-11-30 03:46:00,
2013-11-29 23:01:00,29.1,22.5,30.53,SSE,150,5.0,9.0,76,0.00,,---,0.12,VWS V14.01,2013-11-30 04:01:00,
2013-11-29 23:16:00,29.1,22.5,30.53,South,175,3.0,11.0,76,0.00,,---,0.12,VWS V14.01,2013-11-30 04:16:00,
2013-11-29 23:31:00,29.4,22.5,30.52,SE,137,3.0,10.0,75,0.00,,---,0.12,VWS V14.01,2013-11-30 04:31:00,
2013-11-29 23:46:00,29.3,22.7,30.52,SE,144,0.0,10.0,76,0.00,,---,0.12,VWS V14.01,2013-11-30 04:46:00,